Novohrad, Texas
Current Conditions -  °F | °C
As of 10:35 AM on Friday 31 Oct 2014 (Local Time) from K3T5 Reporting Station
Clear Clear  
Wind Chill: 68°   Ceiling: Unl
Heat Index: 68°   Visibility: 10mi
Dew Point: 51°   Wind: 5mph
Humidity: 55%   Direction: 350°N
Pressure: 30.24"   Gusts: NA
Location:  29.5667°N, 97.0723°W
Report Text: K3T5 311535Z AUTO 35004KT 10SM CLR 20/11 A3024 RMK AO2 T02010107
Loading
Personal Weather Stations






























Interactive Weather Map
Tropical Storm Tracking
New forecast layout! Learn more

10-Day Weather Forecast

Advertisements
Track Severe Weather on mobile